FAC7249 EPKK-SKBO
Flight info
| Callsign | FAC7249 |
|---|---|
| Flight time | N/A |
| Altitude | FL410 |
| Route | EPKK SID OMFOL T738 LASIS L986 SAS L980 RKN L602 TENLI L980 FLEVO L602 NALAX L46 GETNO/N0485F320 DCT IOM DCT ERNAN DCT REVNU DCT RESNO/M085F340 NATB NEEKO/N0485F360 Q822 ENE Q480 BEEKN Q97 YAZUU Q167 ZIZZI Q445 TBONN Q97 CAANO Q167 PAJET Q445 ZJAAY Q97 KALDA Q161 CHIEZ Y291 SAGGY AR19 JRDAN AR3 JAZZI Y307 ADUCI AR3 CARPX Y307 CASPR AR3 NUCAR Y307 ENAMO UM218 LOKOV UG444 EJA UQ119 ILSEV STAR SKBO |
| Aircraft | B744/H-S/N |
Departure
| Time | N/A |
|---|---|
| Airport | Kraków John Paul II International Airport (EPKK) |
Arrival
| Time | 2026-05-04 18:40 |
|---|---|
| Airport | El Dorado International Airport (SKBO) |
| Time | Latitude | Longitude | Altitude | Speed | Heading |
|---|---|---|---|---|---|
| 2026-05-04 18:25 | 5.00633 | -75.25010 | 13943 ft | 358 kts | 19° |
| 2026-05-04 18:26 | 5.02782 | -75.23765 | 14003 ft | 360 kts | 36° |
| 2026-05-04 18:26 | 5.04539 | -75.22005 | 14044 ft | 357 kts | 52° |
| 2026-05-04 18:26 | 5.05747 | -75.19883 | 14015 ft | 353 kts | 68° |
| 2026-05-04 18:26 | 5.06332 | -75.17512 | 14005 ft | 350 kts | 83° |
| 2026-05-04 18:27 | 5.06303 | -75.15083 | 14024 ft | 348 kts | 95° |
| 2026-05-04 18:27 | 5.05943 | -75.12704 | 14012 ft | 346 kts | 101° |
| 2026-05-04 18:27 | 5.05422 | -75.10355 | 14004 ft | 345 kts | 103° |
| 2026-05-04 18:27 | 5.04822 | -75.08039 | 14001 ft | 344 kts | 105° |
| 2026-05-04 18:28 | 5.04181 | -75.05734 | 14000 ft | 343 kts | 106° |
| 2026-05-04 18:28 | 5.03509 | -75.03442 | 14000 ft | 343 kts | 107° |
| 2026-05-04 18:28 | 5.02814 | -75.01163 | 14000 ft | 343 kts | 107° |
| 2026-05-04 18:28 | 5.02108 | -74.98894 | 13999 ft | 342 kts | 107° |
| 2026-05-04 18:29 | 5.01393 | -74.96616 | 14001 ft | 342 kts | 107° |
| 2026-05-04 18:29 | 5.00677 | -74.94346 | 13998 ft | 342 kts | 108° |
| 2026-05-04 18:29 | 4.99985 | -74.92059 | 13991 ft | 346 kts | 108° |
| 2026-05-04 18:29 | 4.99308 | -74.89732 | 13997 ft | 349 kts | 108° |
| 2026-05-04 18:30 | 4.97974 | -74.85038 | 14001 ft | 352 kts | 108° |
| 2026-05-04 18:30 | 4.97310 | -74.82679 | 14000 ft | 353 kts | 108° |
| 2026-05-04 18:30 | 4.96644 | -74.80305 | 14001 ft | 354 kts | 107° |
| 2026-05-04 18:31 | 4.95982 | -74.77938 | 14000 ft | 354 kts | 107° |
| 2026-05-04 18:31 | 4.95318 | -74.75564 | 14001 ft | 354 kts | 107° |
| 2026-05-04 18:31 | 4.94654 | -74.73185 | 13999 ft | 355 kts | 107° |
| 2026-05-04 18:31 | 4.93993 | -74.70813 | 14001 ft | 355 kts | 107° |
| 2026-05-04 18:32 | 4.93331 | -74.68439 | 13999 ft | 355 kts | 107° |
| 2026-05-04 18:32 | 4.92672 | -74.66068 | 13997 ft | 355 kts | 107° |
| 2026-05-04 18:32 | 4.92008 | -74.63673 | 13960 ft | 356 kts | 107° |
| 2026-05-04 18:32 | 4.91349 | -74.61289 | 13655 ft | 351 kts | 107° |
| 2026-05-04 18:33 | 4.90741 | -74.58969 | 13404 ft | 340 kts | 106° |
| 2026-05-04 18:33 | 4.90196 | -74.56693 | 13147 ft | 332 kts | 105° |
| 2026-05-04 18:33 | 4.89703 | -74.54458 | 12894 ft | 327 kts | 104° |
| 2026-05-04 18:33 | 4.89261 | -74.52244 | 12642 ft | 322 kts | 103° |
| 2026-05-04 18:34 | 4.88845 | -74.50053 | 12391 ft | 319 kts | 103° |
| 2026-05-04 18:34 | 4.88444 | -74.47885 | 12183 ft | 315 kts | 102° |
| 2026-05-04 18:34 | 4.88053 | -74.45746 | 12058 ft | 313 kts | 102° |
| 2026-05-04 18:34 | 4.87666 | -74.43612 | 12015 ft | 311 kts | 102° |
| 2026-05-04 18:35 | 4.87280 | -74.41481 | 12003 ft | 310 kts | 102° |
| 2026-05-04 18:35 | 4.86897 | -74.39360 | 12000 ft | 309 kts | 102° |
| 2026-05-04 18:35 | 4.86529 | -74.37304 | 12004 ft | 292 kts | 100° |
| 2026-05-04 18:35 | 4.86210 | -74.35371 | 12065 ft | 272 kts | 100° |
| 2026-05-04 18:36 | 4.85665 | -74.33602 | 12064 ft | 261 kts | 112° |
| 2026-05-04 18:36 | 4.84707 | -74.32098 | 12093 ft | 254 kts | 127° |
| 2026-05-04 18:36 | 4.83514 | -74.30835 | 12106 ft | 249 kts | 135° |
| 2026-05-04 18:36 | 4.82286 | -74.29620 | 12091 ft | 246 kts | 135° |
| 2026-05-04 18:37 | 4.81177 | -74.28342 | 12089 ft | 244 kts | 130° |
| 2026-05-04 18:37 | 4.80161 | -74.26957 | 11745 ft | 246 kts | 126° |
| 2026-05-04 18:37 | 4.79226 | -74.25591 | 11392 ft | 230 kts | 125° |
| 2026-05-04 18:37 | 4.78319 | -74.24345 | 10969 ft | 214 kts | 127° |
| 2026-05-04 18:38 | 4.77431 | -74.23212 | 10571 ft | 199 kts | 129° |
| 2026-05-04 18:38 | 4.76593 | -74.22137 | 10350 ft | 194 kts | 128° |
| 2026-05-04 18:38 | 4.75801 | -74.21084 | 9978 ft | 188 kts | 128° |
| 2026-05-04 18:38 | 4.75018 | -74.20041 | 9708 ft | 185 kts | 128° |
| 2026-05-04 18:39 | 4.74246 | -74.19028 | 9423 ft | 182 kts | 128° |
| 2026-05-04 18:39 | 4.73486 | -74.18027 | 9162 ft | 180 kts | 128° |
| 2026-05-04 18:39 | 4.72738 | -74.17039 | 8887 ft | 178 kts | 128° |
| 2026-05-04 18:39 | 4.71990 | -74.16068 | 8573 ft | 174 kts | 128° |
| 2026-05-04 18:40 | 4.71267 | -74.15108 | 8417 ft | 172 kts | 128° |
| 2026-05-04 18:40 | 4.70599 | -74.14222 | 8379 ft | 114 kts | 128° |
| 2026-05-04 18:40 | 4.70358 | -74.13908 | 8379 ft | 21 kts | 128° |
| 2026-05-04 18:40 | 4.70303 | -74.13851 | 8379 ft | 9 kts | 167° |
| 2026-05-04 18:41 | 4.70240 | -74.13866 | 8379 ft | 1 kts | 213° |
| 2026-05-04 18:41 | 4.70218 | -74.13881 | 8379 ft | 8 kts | 213° |
| 2026-05-04 18:41 | 4.70162 | -74.13921 | 8379 ft | 11 kts | 216° |
| 2026-05-04 18:41 | 4.70106 | -74.13969 | 8379 ft | 13 kts | 240° |
| 2026-05-04 18:42 | 4.70093 | -74.14066 | 8379 ft | 13 kts | 271° |
| 2026-05-04 18:42 | 4.70097 | -74.14145 | 8379 ft | 14 kts | 272° |
| 2026-05-04 18:42 | 4.70101 | -74.14233 | 8379 ft | 11 kts | 272° |
| 2026-05-04 18:42 | 4.70133 | -74.14310 | 8379 ft | 15 kts | 307° |
| 2026-05-04 18:43 | 4.70205 | -74.14423 | 8379 ft | 24 kts | 304° |
| 2026-05-04 18:43 | 4.70304 | -74.14556 | 8379 ft | 20 kts | 310° |
| 2026-05-04 18:43 | 4.70399 | -74.14667 | 8379 ft | 14 kts | 308° |
| 2026-05-04 18:43 | 4.70411 | -74.14683 | 8379 ft | 0 kts | 309° |